Time;durP1;ratioP1;P1;durP2;ratioP2;P2;SDS_P1;SDS_P2;PMS_P1;PMS_P2;Temp;Humidity;BMP_temperature;BMP_pressure;BME280_temperature;BME280_humidity;BME280_pressure;Samples;Min_cycle;Max_cycle;Signal;HPM_P1;HPM_P2
2023/04/20 04:04:36;;;;;;;2.35;2.15;;;1.80;99.90;;;;;;5969129;23;20179;-61
2023/04/20 04:07:02;;;;;;;1.10;1.00;;;1.80;99.90;;;;;;4957318;28;20201;-62
2023/04/20 04:09:27;;;;;;;1.30;1.30;;;1.70;99.90;;;;;;4960208;29;20246;-61
2023/04/20 04:11:53;;;;;;;3.60;3.30;;;1.80;99.90;;;;;;4958437;29;20196;-62
2023/04/20 04:14:19;;;;;;;1.70;1.60;;;1.80;99.90;;;;;;4958026;29;20658;-62
2023/04/20 04:16:45;;;;;;;2.60;2.03;;;1.80;99.90;;;;;;4958041;29;20196;-63
2023/04/20 04:19:10;;;;;;;1.80;1.70;;;1.80;99.90;;;;;;4958184;29;20555;-63
2023/04/20 04:21:36;;;;;;;2.27;2.10;;;1.80;99.90;;;;;;4957996;29;20196;-62
2023/04/20 04:24:02;;;;;;;1.30;1.30;;;1.70;99.90;;;;;;4957846;29;20264;-62
2023/04/20 04:26:28;;;;;;;3.30;2.97;;;1.60;99.90;;;;;;4940872;29;20685;-62
2023/04/20 04:28:54;;;;;;;2.33;2.23;;;1.70;99.90;;;;;;4957972;29;20172;-63
2023/04/20 04:31:20;;;;;;;0.90;0.90;;;1.60;99.90;;;;;;4957434;29;20536;-63
2023/04/20 04:33:46;;;;;;;1.40;1.40;;;1.60;99.90;;;;;;4956208;29;20188;-62
2023/04/20 04:36:14;;;;;;;1.00;1.00;;;1.60;99.90;;;;;;4939548;29;20208;-62
2023/04/20 04:38:43;;;;;;;1.85;1.75;;;1.60;99.90;;;;;;4957771;29;20405;-61
2023/04/20 04:41:09;;;;;;;1.63;1.63;;;1.60;99.90;;;;;;4957845;29;20663;-62
2023/04/20 04:43:35;;;;;;;1.77;1.73;;;1.70;99.90;;;;;;4956986;29;20551;-62
2023/04/20 04:46:08;;;;;;;4.20;2.22;;;1.90;99.90;;;;;;4957301;29;20259;-62
2023/04/20 04:48:34;;;;;;;1.45;1.45;;;2.10;99.90;;;;;;4957450;28;20177;-62
2023/04/20 04:51:00;;;;;;;1.80;1.70;;;2.20;99.90;;;;;;4957217;29;20208;-63
2023/04/20 04:53:26;;;;;;;1.90;1.80;;;2.30;99.90;;;;;;4957264;29;20200;-62
2023/04/20 04:55:51;;;;;;;2.13;2.03;;;2.40;99.90;;;;;;4957422;29;20464;-62
2023/04/20 04:58:17;;;;;;;2.40;2.30;;;2.50;99.90;;;;;;4957254;29;20625;-62
2023/04/20 05:00:43;;;;;;;2.37;2.20;;;2.70;99.90;;;;;;4957292;29;20200;-62
2023/04/20 05:03:08;;;;;;;1.83;1.73;;;2.90;99.90;;;;;;4957057;29;20260;-62
2023/04/20 05:05:34;;;;;;;2.47;2.27;;;3.20;99.90;;;;;;4939689;28;20667;-61
2023/04/20 05:07:59;;;;;;;3.07;2.80;;;3.40;99.90;;;;;;4940212;29;20188;-63
2023/04/20 05:10:25;;;;;;;2.77;2.57;;;3.60;99.90;;;;;;4957051;29;20591;-62
2023/04/20 05:12:51;;;;;;;2.33;2.20;;;3.70;99.90;;;;;;4957071;29;20261;-63
2023/04/20 05:15:17;;;;;;;2.90;2.70;;;3.80;99.90;;;;;;4956483;29;20231;-63
2023/04/20 05:17:43;;;;;;;2.53;2.30;;;4.00;99.90;;;;;;4956491;29;20162;-63
2023/04/20 05:20:10;;;;;;;3.50;3.30;;;4.20;99.90;;;;;;4956869;29;20262;-62
2023/04/20 05:22:36;;;;;;;3.47;3.15;;;4.50;99.90;;;;;;4956537;29;20166;-63
2023/04/20 05:25:02;;;;;;;2.63;2.03;;;4.70;99.90;;;;;;4938931;29;20213;-62
2023/04/20 05:27:28;;;;;;;5.15;2.63;;;4.90;99.90;;;;;;4939379;29;20763;-62
2023/04/20 05:29:54;;;;;;;3.37;3.07;;;5.20;99.90;;;;;;4956447;29;20181;-62
2023/04/20 05:32:19;;;;;;;2.23;2.13;;;5.20;99.90;;;;;;4956437;29;20227;-63
2023/04/20 05:34:45;;;;;;;2.87;2.10;;;5.30;99.90;;;;;;4955803;29;20478;-63
2023/04/20 05:37:10;;;;;;;3.70;3.50;;;5.40;99.90;;;;;;4955976;29;20526;-62
2023/04/20 05:39:36;;;;;;;2.53;2.33;;;5.60;99.90;;;;;;4956880;29;20593;-63
2023/04/20 05:42:02;;;;;;;1.40;1.30;;;5.80;99.90;;;;;;4956461;29;20172;-64
2023/04/20 05:44:27;;;;;;;3.70;3.20;;;6.00;99.90;;;;;;4955848;29;20172;-63
2023/04/20 05:46:53;;;;;;;2.80;2.60;;;6.20;99.90;;;;;;4939150;29;20188;-64
2023/04/20 05:49:18;;;;;;;1.93;1.83;;;6.20;99.90;;;;;;4956362;29;20571;-63
2023/04/20 05:51:44;;;;;;;2.20;2.00;;;6.30;99.90;;;;;;4956331;29;20172;-63
2023/04/20 05:54:10;;;;;;;2.63;2.43;;;6.40;99.90;;;;;;4955547;29;20203;-64
2023/04/20 05:56:35;;;;;;;2.63;2.43;;;6.70;99.90;;;;;;4938247;29;20208;-65
2023/04/20 05:59:01;;;;;;;3.50;2.57;;;7.10;99.90;;;;;;4955739;29;20575;-63
2023/04/20 06:01:27;;;;;;;2.37;2.27;;;7.50;99.90;;;;;;4955385;28;20173;-63
2023/04/20 06:03:52;;;;;;;2.77;2.50;;;8.10;99.90;;;;;;4955448;29;20404;-63
2023/04/20 06:06:18;;;;;;;2.50;2.30;;;8.60;99.90;;;;;;4955509;29;20217;-63
2023/04/20 06:08:43;;;;;;;2.53;2.33;;;9.00;99.90;;;;;;4955845;29;20177;-63
2023/04/20 06:11:09;;;;;;;4.67;2.83;;;9.40;99.90;;;;;;4954860;29;20190;-66
2023/04/20 06:13:34;;;;;;;3.10;2.90;;;9.80;99.90;;;;;;4937211;29;20186;-64
2023/04/20 06:16:00;;;;;;;2.40;2.20;;;10.20;99.40;;;;;;4938183;29;20211;-69
2023/04/20 06:18:25;;;;;;;2.30;2.20;;;10.50;97.60;;;;;;4955616;29;20231;-69
2023/04/20 06:20:51;;;;;;;2.60;2.50;;;10.50;97.60;;;;;;4955869;29;20198;-68
2023/04/20 06:23:17;;;;;;;2.00;1.90;;;10.60;96.80;;;;;;4955353;29;20588;-64
2023/04/20 06:25:42;;;;;;;2.63;2.43;;;10.50;96.20;;;;;;4938176;29;20199;-64
2023/04/20 06:28:08;;;;;;;2.80;2.43;;;10.30;96.80;;;;;;4955473;29;20180;-63
2023/04/20 06:30:34;;;;;;;2.73;2.50;;;10.30;97.30;;;;;;4955031;29;20427;-63
2023/04/20 06:33:00;;;;;;;3.10;2.90;;;10.10;97.10;;;;;;4955341;29;20418;-64
2023/04/20 06:35:26;;;;;;;2.47;2.37;;;10.00;97.40;;;;;;4953789;29;20219;-62
2023/04/20 06:37:52;;;;;;;2.60;2.50;;;9.70;98.20;;;;;;4955289;29;20390;-64
2023/04/20 06:40:18;;;;;;;2.47;2.27;;;9.60;99.00;;;;;;4955231;29;20234;-63
2023/04/20 06:42:44;;;;;;;3.53;3.13;;;9.60;99.00;;;;;;4955152;29;20170;-63
2023/04/20 06:45:10;;;;;;;3.30;3.10;;;9.70;98.70;;;;;;4954444;29;20493;-63
2023/04/20 06:47:36;;;;;;;2.30;2.20;;;9.80;98.70;;;;;;4955190;29;20419;-64
2023/04/20 06:50:08;;;;;;;2.07;1.90;;;9.80;98.50;;;;;;4954882;29;20889;-63
2023/04/20 06:52:40;;;;;;;2.63;2.50;;;9.80;98.60;;;;;;4955228;29;20425;-62
2023/04/20 06:55:06;;;;;;;3.30;2.50;;;9.70;98.90;;;;;;4954657;29;20470;-63
2023/04/20 06:57:32;;;;;;;1.97;1.87;;;9.90;99.20;;;;;;4955069;29;20785;-64
2023/04/20 06:59:57;;;;;;;4.47;3.47;;;10.20;98.30;;;;;;4954913;29;20415;-64
2023/04/20 07:02:23;;;;;;;5.17;2.87;;;10.50;97.80;;;;;;4955166;29;20586;-64
2023/04/20 07:04:49;;;;;;;3.10;2.80;;;10.80;97.50;;;;;;4954641;29;20234;-63
2023/04/20 07:07:15;;;;;;;2.43;2.27;;;10.90;97.20;;;;;;4955014;29;20428;-64
2023/04/20 07:09:41;;;;;;;3.60;2.97;;;11.10;96.90;;;;;;4954967;29;20262;-63
2023/04/20 07:12:07;;;;;;;2.30;2.20;;;11.20;96.30;;;;;;4954924;28;20383;-64
2023/04/20 07:14:33;;;;;;;4.70;2.77;;;11.20;96.30;;;;;;4958095;29;20482;-63
2023/04/20 07:16:58;;;;;;;2.27;2.17;;;11.10;96.10;;;;;;4960212;29;20916;-64
2023/04/20 07:19:24;;;;;;;2.93;2.73;;;11.00;96.00;;;;;;4958658;29;20268;-64
2023/04/20 07:21:50;;;;;;;2.30;2.10;;;10.60;96.40;;;;;;4958756;29;20200;-63
2023/04/20 07:24:15;;;;;;;2.77;2.57;;;10.60;96.90;;;;;;4971187;28;20732;-64
2023/04/20 07:26:41;;;;;;;3.07;2.70;;;10.70;97.30;;;;;;4975053;28;20688;-63
2023/04/20 07:29:06;;;;;;;2.00;1.90;;;11.10;96.40;;;;;;4977665;28;20180;-63
2023/04/20 07:31:32;;;;;;;2.07;1.97;;;11.40;96.10;;;;;;4978293;28;20241;-64
2023/04/20 07:33:57;;;;;;;2.73;2.33;;;11.50;95.60;;;;;;4976877;28;20652;-64
2023/04/20 07:36:23;;;;;;;2.67;2.57;;;11.30;95.50;;;;;;4973447;28;20701;-64
2023/04/20 07:38:49;;;;;;;2.97;2.13;;;11.20;95.80;;;;;;4944641;28;20184;-64
2023/04/20 07:41:15;;;;;;;2.80;2.50;;;11.10;96.00;;;;;;4956892;29;20187;-64
2023/04/20 07:43:41;;;;;;;3.60;3.30;;;10.90;96.10;;;;;;4957955;29;20176;-63
2023/04/20 07:46:08;;;;;;;3.73;3.43;;;10.90;96.50;;;;;;4958352;29;20781;-65
2023/04/20 07:48:34;;;;;;;3.20;2.97;;;11.10;96.80;;;;;;4958108;29;20192;-64
2023/04/20 07:51:00;;;;;;;2.40;2.20;;;11.30;96.40;;;;;;4958260;29;20507;-63
2023/04/20 07:53:26;;;;;;;2.77;2.63;;;11.60;95.50;;;;;;4940587;29;20240;-62
2023/04/20 07:55:52;;;;;;;2.70;2.50;;;11.80;95.60;;;;;;4957877;29;20212;-64
2023/04/20 07:58:17;;;;;;;2.93;2.67;;;12.10;95.30;;;;;;4957669;29;20416;-64
2023/04/20 08:00:46;;;;;;;2.90;2.70;;;12.60;94.60;;;;;;4957512;29;20202;-65
2023/04/20 08:03:11;;;;;;;4.27;3.57;;;12.80;94.20;;;;;;4958098;29;20531;-64
2023/04/20 08:05:38;;;;;;;3.20;3.00;;;12.70;93.80;;;;;;4957930;29;20419;-63
2023/04/20 08:08:04;;;;;;;3.33;3.10;;;12.50;93.80;;;;;;4958160;29;20185;-64
2023/04/20 08:10:30;;;;;;;3.80;3.50;;;11.90;94.30;;;;;;4958046;29;20419;-64
2023/04/20 08:12:55;;;;;;;2.93;2.70;;;11.20;95.00;;;;;;4957828;29;20195;-63
2023/04/20 08:15:21;;;;;;;3.17;2.87;;;10.70;96.10;;;;;;4957962;29;20215;-63
2023/04/20 08:17:47;;;;;;;2.80;2.60;;;10.50;96.10;;;;;;4958026;29;20179;-63
2023/04/20 08:20:12;;;;;;;3.17;2.87;;;10.20;96.70;;;;;;4957688;29;20242;-64
2023/04/20 08:22:38;;;;;;;2.57;2.40;;;9.70;98.00;;;;;;4957993;29;20178;-63
2023/04/20 08:25:04;;;;;;;2.07;1.97;;;9.50;98.40;;;;;;4957183;28;20328;-63
2023/04/20 08:27:30;;;;;;;2.63;2.50;;;9.20;98.70;;;;;;4957618;29;20271;-63
2023/04/20 08:29:56;;;;;;;3.30;3.10;;;8.80;99.40;;;;;;4957704;29;20421;-63
2023/04/20 08:32:23;;;;;;;2.87;2.43;;;8.50;99.90;;;;;;4957541;29;20177;-63
2023/04/20 08:34:49;;;;;;;3.40;3.10;;;8.40;99.90;;;;;;4957484;29;20299;-64
2023/04/20 08:37:15;;;;;;;2.70;2.50;;;8.20;99.90;;;;;;4957656;29;20276;-63
2023/04/20 08:39:41;;;;;;;3.10;2.90;;;8.20;99.90;;;;;;4957443;29;20492;-63
2023/04/20 08:42:06;;;;;;;2.77;2.60;;;8.20;99.90;;;;;;4957464;29;20180;-64
2023/04/20 08:44:32;;;;;;;2.10;2.00;;;8.10;99.90;;;;;;4957371;29;20227;-62
2023/04/20 08:46:58;;;;;;;2.90;2.60;;;8.10;99.90;;;;;;4957590;29;20634;-63
2023/04/20 08:49:28;;;;;;;3.00;2.72;;;8.10;99.90;;;;;;4957457;29;20185;-63
2023/04/20 08:51:54;;;;;;;2.17;2.08;;;8.00;99.90;;;;;;4957516;29;20200;-63
2023/04/20 08:54:19;;;;;;;7.33;2.63;;;7.90;99.90;;;;;;4939803;29;20598;-63
2023/04/20 08:56:46;;;;;;;4.40;3.37;;;8.00;99.90;;;;;;4957220;29;20201;-64
2023/04/20 08:59:13;;;;;;;3.35;2.47;;;7.90;99.90;;;;;;4957165;29;20165;-63
2023/04/20 09:01:43;;;;;;;2.80;2.60;;;8.00;99.90;;;;;;4940016;29;20203;-63
2023/04/20 09:04:25;;;;;;;3.03;2.70;;;8.00;99.90;;;;;;4939622;29;20187;-63
2023/04/20 09:06:55;;;;;;;2.33;2.13;;;8.10;99.90;;;;;;4956799;29;20188;-63
2023/04/20 09:09:22;;;;;;;3.67;3.40;;;8.20;99.90;;;;;;4957183;29;20198;-62
2023/04/20 09:12:09;;;;;;;2.55;2.22;;;8.30;99.90;;;;;;4957088;29;20533;-64
2023/04/20 09:14:45;;;;;;;3.42;3.13;;;8.30;99.90;;;;;;4956522;29;20602;-64
2023/04/20 09:17:13;;;;;;;3.03;2.70;;;8.30;99.90;;;;;;4956922;29;20172;-62
2023/04/20 09:19:39;;;;;;;7.50;3.05;;;8.30;99.90;;;;;;4957005;29;20176;-63
2023/04/20 09:22:05;;;;;;;2.40;2.25;;;8.30;99.90;;;;;;4939589;29;20541;-64
2023/04/20 09:24:36;;;;;;;3.50;2.60;;;8.30;99.90;;;;;;4956254;29;20172;-63
2023/04/20 09:27:14;;;;;;;2.25;2.15;;;8.40;99.90;;;;;;4956930;29;20183;-64
2023/04/20 09:29:40;;;;;;;3.00;2.75;;;8.50;99.90;;;;;;4956822;29;20180;-63
2023/04/20 09:32:05;;;;;;;2.77;2.53;;;8.40;99.90;;;;;;4956837;29;20183;-62
2023/04/20 09:34:42;;;;;;;2.93;2.73;;;8.40;99.90;;;;;;4956302;29;20602;-63
2023/04/20 09:37:09;;;;;;;3.13;3.00;;;8.50;99.90;;;;;;4955972;29;20208;-63
2023/04/20 09:39:39;;;;;;;3.95;2.63;;;8.50;99.90;;;;;;4956674;29;20180;-64
2023/04/20 09:42:06;;;;;;;3.55;3.25;;;8.60;99.90;;;;;;4956632;29;20176;-63
2023/04/20 09:44:33;;;;;;;3.50;3.20;;;8.60;99.90;;;;;;4955979;29;20173;-63
2023/04/20 09:46:59;;;;;;;3.53;3.30;;;8.70;99.90;;;;;;4956214;29;20622;-64
2023/04/20 09:49:25;;;;;;;4.17;3.60;;;8.70;99.90;;;;;;4956438;29;20185;-64
2023/04/20 09:51:51;;;;;;;2.90;2.65;;;8.70;99.90;;;;;;4956467;29;20581;-64
2023/04/20 09:54:17;;;;;;;2.40;2.30;;;8.70;99.90;;;;;;4955985;29;20213;-63
2023/04/20 09:56:42;;;;;;;2.13;2.03;;;8.70;99.90;;;;;;4956254;29;20503;-64
2023/04/20 09:59:08;;;;;;;3.20;3.00;;;8.70;99.90;;;;;;4956222;29;20921;-63
2023/04/20 10:01:36;;;;;;;3.43;3.13;;;8.80;99.90;;;;;;4938748;29;20173;-63
2023/04/20 10:04:05;;;;;;;2.42;2.22;;;8.80;99.90;;;;;;4938575;29;20535;-62
2023/04/20 10:06:32;;;;;;;2.72;2.55;;;8.90;99.90;;;;;;4955763;29;20639;-64
2023/04/20 10:09:00;;;;;;;3.17;2.67;;;8.90;99.90;;;;;;4955933;29;20207;-63
2023/04/20 10:11:35;;;;;;;3.15;2.85;;;9.10;99.90;;;;;;4955860;29;20173;-63
2023/04/20 10:14:16;;;;;;;2.90;2.63;;;9.20;99.90;;;;;;4955763;29;20211;-63
2023/04/20 10:16:43;;;;;;;4.45;3.22;;;9.30;99.90;;;;;;4955653;29;20200;-63
2023/04/20 10:19:08;;;;;;;2.63;2.45;;;9.40;99.90;;;;;;4955828;29;20223;-63
2023/04/20 10:21:45;;;;;;;3.30;2.60;;;9.40;99.90;;;;;;4956092;29;20575;-63
2023/04/20 10:24:10;;;;;;;2.20;2.00;;;9.40;99.90;;;;;;4955579;29;20156;-65
2023/04/20 10:26:41;;;;;;;7.10;3.20;;;9.40;99.90;;;;;;4955752;29;20200;-64
2023/04/20 10:29:07;;;;;;;5.60;3.75;;;9.30;99.90;;;;;;4955891;29;20523;-62
2023/04/20 10:31:37;;;;;;;2.53;2.33;;;9.30;99.90;;;;;;4955794;29;20179;-64
2023/04/20 10:34:03;;;;;;;3.13;2.90;;;9.20;99.90;;;;;;4955353;29;20228;-65
2023/04/20 10:36:36;;;;;;;4.07;2.70;;;9.20;99.90;;;;;;4955346;29;20671;-63
2023/04/20 10:39:16;;;;;;;4.50;4.10;;;9.20;99.90;;;;;;4955614;29;20459;-65
2023/04/20 10:42:00;;;;;;;2.40;2.30;;;9.00;99.90;;;;;;4955470;29;20243;-66
2023/04/20 10:44:26;;;;;;;4.00;3.33;;;8.90;99.90;;;;;;4955183;29;20177;-65
2023/04/20 10:46:53;;;;;;;2.72;2.53;;;8.80;99.90;;;;;;4955521;29;20161;-66
2023/04/20 10:49:24;;;;;;;2.35;2.25;;;8.60;99.90;;;;;;4955576;29;20165;-67
2023/04/20 10:51:51;;;;;;;2.00;1.90;;;8.50;99.90;;;;;;4955605;29;20169;-67
2023/04/20 10:54:17;;;;;;;3.00;2.72;;;8.40;99.90;;;;;;4954970;29;20575;-66
2023/04/20 10:56:46;;;;;;;5.70;3.85;;;8.30;99.90;;;;;;4955424;29;20220;-67
2023/04/20 10:59:14;;;;;;;2.80;2.60;;;8.00;99.90;;;;;;4955484;29;20165;-68
2023/04/20 11:01:40;;;;;;;2.28;2.17;;;7.90;99.90;;;;;;4955214;29;20579;-67
2023/04/20 11:04:07;;;;;;;2.65;2.40;;;7.80;99.90;;;;;;4954982;29;20593;-67
2023/04/20 11:06:33;;;;;;;2.70;2.50;;;7.70;99.90;;;;;;4955007;29;20200;-67
2023/04/20 11:08:59;;;;;;;3.75;3.17;;;7.70;99.90;;;;;;4955250;29;20256;-67
2023/04/20 11:11:27;;;;;;;3.00;2.00;;;7.70;99.90;;;;;;4955393;29;20271;-67
2023/04/20 11:14:07;;;;;;;2.55;2.30;;;7.70;99.90;;;;;;4937650;29;20203;-67
2023/04/20 11:16:33;;;;;;;3.30;3.00;;;7.80;99.90;;;;;;4937681;29;20278;-67
2023/04/20 11:18:59;;;;;;;2.63;2.30;;;7.90;99.90;;;;;;4955070;29;20169;-66
2023/04/20 11:21:36;;;;;;;2.93;2.73;;;8.00;99.90;;;;;;4955252;29;20184;-66
2023/04/20 11:24:02;;;;;;;2.55;2.30;;;8.30;99.90;;;;;;4937559;29;20639;-67
2023/04/20 11:26:39;;;;;;;2.85;2.63;;;8.40;99.90;;;;;;4955189;29;20196;-67
2023/04/20 11:29:05;;;;;;;4.65;2.80;;;8.60;99.90;;;;;;4955303;29;20176;-66
2023/04/20 11:31:31;;;;;;;3.80;3.47;;;8.70;99.90;;;;;;4955357;29;20252;-66
2023/04/20 11:33:57;;;;;;;4.53;4.10;;;8.90;99.90;;;;;;4955573;29;20180;-66
2023/04/20 11:36:23;;;;;;;3.60;3.23;;;9.10;99.90;;;;;;4954927;29;20209;-66
2023/04/20 11:38:49;;;;;;;4.60;4.05;;;9.30;99.90;;;;;;4955013;29;20400;-66
2023/04/20 11:41:18;;;;;;;5.53;3.22;;;9.50;99.90;;;;;;4954866;29;20173;-64
2023/04/20 11:43:44;;;;;;;4.50;3.03;;;9.70;99.90;;;;;;4955011;29;20165;-65
2023/04/20 11:46:19;;;;;;;4.20;3.20;;;9.80;99.90;;;;;;4954970;29;20225;-65
2023/04/20 11:48:46;;;;;;;3.13;2.88;;;9.90;99.90;;;;;;4954838;29;20180;-64
2023/04/20 11:51:13;;;;;;;3.05;2.80;;;10.00;99.90;;;;;;4954871;29;20265;-63
2023/04/20 11:53:39;;;;;;;3.05;2.85;;;10.00;99.90;;;;;;4954366;29;20171;-64
2023/04/20 11:56:05;;;;;;;4.65;2.90;;;10.00;99.90;;;;;;4954612;29;20221;-64
2023/04/20 11:58:31;;;;;;;4.93;3.83;;;9.90;99.90;;;;;;4955254;28;20553;-65
2023/04/20 12:00:56;;;;;;;2.63;2.30;;;10.00;99.90;;;;;;4958496;29;20165;-65
2023/04/20 12:03:22;;;;;;;3.50;3.27;;;10.00;99.90;;;;;;4958084;29;20169;-64
2023/04/20 12:05:47;;;;;;;2.77;2.57;;;9.90;99.90;;;;;;4958118;29;20211;-64
2023/04/20 12:08:13;;;;;;;2.87;2.67;;;9.80;99.90;;;;;;4958267;29;20177;-64
2023/04/20 12:10:39;;;;;;;3.90;3.07;;;9.70;99.90;;;;;;4958171;29;20180;-65
2023/04/20 12:13:05;;;;;;;2.00;1.90;;;9.60;99.90;;;;;;4957958;29;20756;-62
2023/04/20 12:15:31;;;;;;;4.18;2.70;;;9.50;99.90;;;;;;4958147;29;20209;-64
2023/04/20 12:17:56;;;;;;;3.10;2.60;;;9.40;99.90;;;;;;4958528;28;20188;-64
2023/04/20 12:20:22;;;;;;;2.30;2.10;;;9.30;99.90;;;;;;4971213;28;20423;-64
2023/04/20 12:22:48;;;;;;;2.03;1.90;;;9.20;99.90;;;;;;4976801;28;20259;-64
2023/04/20 12:25:13;;;;;;;3.27;2.97;;;9.20;99.90;;;;;;4957355;29;20675;-64
2023/04/20 12:27:39;;;;;;;3.70;3.37;;;9.20;99.90;;;;;;4957648;29;20735;-67
2023/04/20 12:30:08;;;;;;;2.57;2.37;;;9.10;99.90;;;;;;4958035;29;20180;-66
2023/04/20 12:32:33;;;;;;;5.47;3.00;;;9.20;99.90;;;;;;4957918;29;20183;-67
2023/04/20 12:34:59;;;;;;;2.67;2.37;;;9.10;99.90;;;;;;4957004;29;20205;-65
2023/04/20 12:37:25;;;;;;;11.33;2.90;;;9.10;99.90;;;;;;4957298;29;20472;-64
2023/04/20 12:39:51;;;;;;;3.67;2.88;;;9.20;99.90;;;;;;4957681;29;20181;-65
2023/04/20 12:42:17;;;;;;;2.77;2.57;;;9.20;99.90;;;;;;4957771;29;20171;-65
2023/04/20 12:44:43;;;;;;;4.50;3.17;;;9.30;99.90;;;;;;4957230;29;20192;-65
2023/04/20 12:47:08;;;;;;;4.40;2.80;;;9.40;99.90;;;;;;4957799;29;20180;-63
2023/04/20 12:49:34;;;;;;;3.33;2.97;;;9.50;99.90;;;;;;4956976;29;20177;-64
2023/04/20 12:51:59;;;;;;;3.13;2.70;;;9.50;99.90;;;;;;4957127;28;20643;-64
2023/04/20 12:54:25;;;;;;;2.63;2.03;;;9.50;99.90;;;;;;4956811;29;20209;-63
2023/04/20 12:56:51;;;;;;;2.73;2.53;;;9.50;99.90;;;;;;4958316;28;20177;-63
2023/04/20 12:59:16;;;;;;;2.73;2.43;;;9.60;99.90;;;;;;4960748;28;20199;-64
2023/04/20 13:01:42;;;;;;;3.23;3.00;;;9.60;99.90;;;;;;4976426;28;20511;-65
2023/04/20 13:04:07;;;;;;;2.30;2.10;;;9.50;99.90;;;;;;4974408;28;20576;-64
2023/04/20 13:06:33;;;;;;;1.97;1.87;;;9.40;99.90;;;;;;4976347;28;20212;-64
2023/04/20 13:09:00;;;;;;;2.30;2.20;;;9.40;99.90;;;;;;4975276;28;20227;-63
2023/04/20 13:11:25;;;;;;;3.90;2.05;;;9.30;99.90;;;;;;4956087;28;20176;-65
2023/04/20 13:13:51;;;;;;;3.13;2.70;;;9.30;99.90;;;;;;4956580;29;20184;-64
2023/04/20 13:16:17;;;;;;;2.60;2.40;;;9.30;99.90;;;;;;4956746;29;20283;-65
2023/04/20 13:18:42;;;;;;;2.57;2.13;;;9.20;99.90;;;;;;4956652;29;20228;-65
2023/04/20 13:21:08;;;;;;;3.87;2.97;;;9.20;99.90;;;;;;4967585;28;20177;-64
2023/04/20 13:23:34;;;;;;;2.13;2.03;;;9.20;99.90;;;;;;4957578;28;20260;-65
2023/04/20 13:26:00;;;;;;;2.30;2.10;;;9.10;99.90;;;;;;4957833;28;20196;-66
2023/04/20 13:28:26;;;;;;;2.35;2.15;;;9.10;99.90;;;;;;4976154;28;20208;-66
2023/04/20 13:30:52;;;;;;;5.60;3.00;;;9.20;99.90;;;;;;4976503;28;20172;-67
2023/04/20 13:33:18;;;;;;;2.83;2.63;;;9.20;99.90;;;;;;4975727;28;20836;-66
2023/04/20 13:35:44;;;;;;;2.70;2.37;;;9.10;99.90;;;;;;4976164;28;20211;-67
2023/04/20 13:38:09;;;;;;;3.60;3.17;;;9.20;99.90;;;;;;4975963;28;20270;-67
2023/04/20 13:40:35;;;;;;;2.43;1.97;;;9.20;99.90;;;;;;4975878;28;20534;-66
2023/04/20 13:43:00;;;;;;;2.97;2.77;;;9.30;99.90;;;;;;4967335;28;20191;-67
2023/04/20 13:45:26;;;;;;;2.37;1.97;;;9.30;99.90;;;;;;4956100;29;20264;-66
2023/04/20 13:47:52;;;;;;;4.00;2.50;;;9.40;99.90;;;;;;4959584;28;20192;-69
2023/04/20 13:50:18;;;;;;;2.30;2.10;;;9.40;99.90;;;;;;4956538;29;20520;-68
2023/04/20 13:52:44;;;;;;;2.63;2.43;;;9.50;99.90;;;;;;4938867;29;20402;-69
2023/04/20 13:55:10;;;;;;;2.90;2.53;;;9.60;99.90;;;;;;4955702;29;20216;-69
2023/04/20 13:57:35;;;;;;;2.60;2.40;;;9.60;99.90;;;;;;4961752;28;20176;-68
2023/04/20 14:00:01;;;;;;;2.80;2.53;;;9.60;99.90;;;;;;4975496;28;20411;-70
2023/04/20 14:02:28;;;;;;;2.88;2.70;;;9.60;99.90;;;;;;4976397;28;20178;-68
2023/04/20 14:04:55;;;;;;;2.88;2.42;;;9.60;99.90;;;;;;4975519;28;20219;-69
2023/04/20 14:07:20;;;;;;;2.35;2.15;;;9.60;99.90;;;;;;4971341;28;20189;-68
2023/04/20 14:09:46;;;;;;;2.13;2.03;;;9.50;99.90;;;;;;4938744;29;20179;-67
2023/04/20 14:12:13;;;;;;;3.70;3.40;;;9.50;99.90;;;;;;4956043;29;20204;-69
2023/04/20 14:14:38;;;;;;;2.35;1.88;;;9.40;99.90;;;;;;4955447;29;20199;-68
2023/04/20 14:17:04;;;;;;;1.80;1.70;;;9.40;99.90;;;;;;4940090;28;20627;-69
2023/04/20 14:19:31;;;;;;;2.47;2.37;;;9.40;99.90;;;;;;4974934;28;20479;-68
2023/04/20 14:21:57;;;;;;;3.80;2.75;;;9.30;99.90;;;;;;4957262;28;20172;-69
2023/04/20 14:24:22;;;;;;;2.00;1.90;;;9.10;99.90;;;;;;4974488;28;20512;-67
2023/04/20 14:26:50;;;;;;;3.03;2.77;;;9.00;99.90;;;;;;4961814;28;20504;-68
2023/04/20 14:29:15;;;;;;;1.98;1.88;;;8.90;99.90;;;;;;4955644;29;20251;-68
2023/04/20 14:31:41;;;;;;;6.87;3.17;;;8.80;99.90;;;;;;4955686;29;20697;-68
2023/04/20 14:34:08;;;;;;;1.57;1.53;;;8.80;99.90;;;;;;4958600;28;20180;-67
2023/04/20 14:36:34;;;;;;;2.55;2.33;;;8.80;99.90;;;;;;4974591;28;20619;-67
2023/04/20 14:39:00;;;;;;;2.30;2.20;;;8.80;99.90;;;;;;4974847;28;20164;-68
2023/04/20 14:41:26;;;;;;;2.08;1.83;;;8.70;99.90;;;;;;4974710;28;20187;-69
2023/04/20 14:43:51;;;;;;;1.60;1.50;;;8.70;99.90;;;;;;4956619;28;20183;-75
2023/04/20 14:46:17;;;;;;;2.63;2.53;;;8.60;99.90;;;;;;4974572;28;20192;-72
2023/04/20 14:48:45;;;;;;;1.98;1.88;;;8.40;99.90;;;;;;4974147;28;20187;-73
2023/04/20 14:51:11;;;;;;;2.95;2.63;;;8.30;99.90;;;;;;4975004;28;20168;-72
2023/04/20 14:53:36;;;;;;;1.77;1.67;;;8.10;99.90;;;;;;4974260;28;20179;-72
2023/04/20 14:56:02;;;;;;;2.70;2.50;;;7.90;99.90;;;;;;4956712;28;20216;-74
2023/04/20 14:58:28;;;;;;;2.13;1.97;;;7.80;99.90;;;;;;4955279;29;20198;-73
2023/04/20 15:00:54;;;;;;;3.90;3.60;;;7.80;99.90;;;;;;4955364;29;20515;-73
2023/04/20 15:03:19;;;;;;;5.03;3.35;;;7.70;99.90;;;;;;4937444;29;20837;-71
2023/04/20 15:05:45;;;;;;;3.07;2.70;;;7.70;99.90;;;;;;4969812;28;20226;-72
2023/04/20 15:08:11;;;;;;;2.53;2.40;;;7.60;99.90;;;;;;4974456;28;20407;-72
2023/04/20 15:10:37;;;;;;;3.43;3.10;;;7.60;99.90;;;;;;4974405;28;20406;-74
2023/04/20 15:13:03;;;;;;;3.00;2.77;;;7.60;99.90;;;;;;4956636;28;20924;-73
2023/04/20 15:15:29;;;;;;;2.90;2.70;;;7.70;99.90;;;;;;4944105;29;21061;-73
2023/04/20 15:17:55;;;;;;;2.67;2.47;;;7.60;99.90;;;;;;4938655;29;20179;-73
2023/04/20 15:20:21;;;;;;;3.53;3.05;;;7.60;99.90;;;;;;4955129;29;20172;-72
2023/04/20 15:22:47;;;;;;;2.93;2.63;;;7.60;99.90;;;;;;4937952;29;20219;-73
2023/04/20 15:25:13;;;;;;;4.03;3.73;;;7.60;99.90;;;;;;4959919;28;20458;-72
2023/04/20 15:27:38;;;;;;;3.95;3.40;;;7.60;99.90;;;;;;4955150;29;20247;-72
2023/04/20 15:30:05;;;;;;;2.17;2.07;;;7.60;99.90;;;;;;4955613;29;20182;-71
2023/04/20 15:32:32;;;;;;;4.55;3.33;;;7.50;99.90;;;;;;4955281;29;20179;-72
2023/04/20 15:34:59;;;;;;;4.93;2.90;;;7.50;99.90;;;;;;4957724;28;20201;-72
2023/04/20 15:37:24;;;;;;;3.70;3.42;;;7.50;99.90;;;;;;4978039;28;20182;-72
2023/04/20 15:39:51;;;;;;;2.63;2.43;;;7.50;99.90;;;;;;4978176;28;20269;-73
2023/04/20 15:42:17;;;;;;;3.08;2.90;;;7.50;99.90;;;;;;4978296;28;20410;-73
2023/04/20 15:44:42;;;;;;;3.47;3.27;;;7.50;99.90;;;;;;4977521;28;20202;-73
2023/04/20 15:47:08;;;;;;;2.70;2.50;;;7.50;99.90;;;;;;4960033;28;20454;-72
2023/04/20 15:49:36;;;;;;;4.93;3.23;;;7.50;99.90;;;;;;4958850;29;20188;-72
2023/04/20 15:52:06;;;;;;;3.20;2.90;;;7.60;99.90;;;;;;4942271;29;20215;-73
2023/04/20 15:54:32;;;;;;;3.28;2.90;;;7.60;99.90;;;;;;4965505;29;20215;-72
2023/04/20 15:56:57;;;;;;;3.37;3.17;;;7.60;99.90;;;;;;4968302;28;20179;-74
2023/04/20 15:59:23;;;;;;;4.57;4.17;;;7.60;99.90;;;;;;4964677;29;20233;-72
2023/04/20 16:01:49;;;;;;;2.53;2.43;;;7.60;99.90;;;;;;4963687;29;20195;-73
2023/04/20 16:04:15;;;;;;;3.67;3.30;;;7.60;99.90;;;;;;4947707;29;20179;-73
2023/04/20 16:06:40;;;;;;;3.47;3.17;;;7.70;99.90;;;;;;4972551;28;20217;-74
2023/04/20 16:09:06;;;;;;;4.03;2.27;;;7.60;99.90;;;;;;4968828;28;20435;-69
2023/04/20 16:11:33;;;;;;;2.97;2.77;;;7.70;99.90;;;;;;4958350;29;20258;-68
2023/04/20 16:13:59;;;;;;;3.92;3.03;;;7.60;99.90;;;;;;4958614;29;20176;-70
2023/04/20 16:16:25;;;;;;;5.18;3.70;;;7.60;99.90;;;;;;4959905;29;20273;-71
2023/04/20 16:18:51;;;;;;;3.87;3.13;;;7.60;99.90;;;;;;4967683;28;20199;-72
2023/04/20 16:21:16;;;;;;;3.20;2.90;;;7.60;99.90;;;;;;4978347;28;20203;-70
2023/04/20 16:23:42;;;;;;;4.33;3.80;;;7.60;99.90;;;;;;4979329;28;20177;-71
2023/04/20 16:26:08;;;;;;;4.20;3.10;;;7.50;99.90;;;;;;4964694;28;20526;-70
2023/04/20 16:28:34;;;;;;;3.20;3.00;;;7.50;99.90;;;;;;4957542;29;20570;-70
2023/04/20 16:30:59;;;;;;;3.43;3.10;;;7.50;99.90;;;;;;4942181;29;20184;-70
2023/04/20 16:33:25;;;;;;;4.83;3.70;;;7.50;99.90;;;;;;4940187;29;20424;-69
2023/04/20 16:35:51;;;;;;;4.07;3.67;;;7.50;99.90;;;;;;4956896;28;20711;-70
2023/04/20 16:38:18;;;;;;;3.97;3.27;;;7.50;99.90;;;;;;4940280;29;20605;-68
2023/04/20 16:40:43;;;;;;;3.40;3.08;;;7.50;99.90;;;;;;4957058;29;20169;-67
2023/04/20 16:43:09;;;;;;;10.53;4.40;;;7.50;99.90;;;;;;4956700;29;20557;-69
2023/04/20 16:45:36;;;;;;;5.30;4.63;;;7.50;99.90;;;;;;4957554;28;20259;-69
2023/04/20 16:48:02;;;;;;;4.55;4.15;;;7.50;99.90;;;;;;4956943;29;20520;-67
2023/04/20 16:50:28;;;;;;;3.40;3.10;;;7.50;99.90;;;;;;4957589;29;20185;-67
2023/04/20 16:52:54;;;;;;;5.27;4.50;;;7.50;99.90;;;;;;4957387;29;20634;-68
2023/04/20 16:55:19;;;;;;;4.80;4.40;;;7.50;99.90;;;;;;4956833;28;20603;-68